sensor_id;sensor_type;location;lat;lon;timestamp;pressure;altitude;pressure_sealevel;temperature;humidity
25080;BME280;13071;48.868;9.996;2023-04-20T00:01:03;96481.94;;;3.09;80.01
25080;BME280;13071;48.868;9.996;2023-04-20T00:03:29;96478.72;;;3.07;80.49
25080;BME280;13071;48.868;9.996;2023-04-20T00:05:58;96487.81;;;3.11;80.77
25080;BME280;13071;48.868;9.996;2023-04-20T00:08:26;96462.81;;;3.20;80.21
25080;BME280;13071;48.868;9.996;2023-04-20T00:10:52;96462.28;;;3.18;79.95
25080;BME280;13071;48.868;9.996;2023-04-20T00:13:19;96463.88;;;3.19;80.17
25080;BME280;13071;48.868;9.996;2023-04-20T00:15:46;96451.75;;;3.27;79.63
25080;BME280;13071;48.868;9.996;2023-04-20T00:18:12;96454.84;;;2.68;80.31
25080;BME280;13071;48.868;9.996;2023-04-20T00:20:39;96447.56;;;2.49;82.01
25080;BME280;13071;48.868;9.996;2023-04-20T00:23:07;96444.78;;;2.59;81.40
25080;BME280;13071;48.868;9.996;2023-04-20T00:25:33;96447.47;;;2.59;81.85
25080;BME280;13071;48.868;9.996;2023-04-20T00:28:00;96437.28;;;2.61;82.38
25080;BME280;13071;48.868;9.996;2023-04-20T00:30:26;96442.25;;;2.44;82.58
25080;BME280;13071;48.868;9.996;2023-04-20T00:32:53;96443.13;;;2.40;82.53
25080;BME280;13071;48.868;9.996;2023-04-20T00:35:19;96433.66;;;2.24;82.98
25080;BME280;13071;48.868;9.996;2023-04-20T00:37:46;96433.25;;;2.11;82.89
25080;BME280;13071;48.868;9.996;2023-04-20T00:40:14;96425.72;;;2.13;83.07
25080;BME280;13071;48.868;9.996;2023-04-20T00:42:41;96426.25;;;2.15;82.50
25080;BME280;13071;48.868;9.996;2023-04-20T00:45:08;96423.16;;;2.03;83.35
25080;BME280;13071;48.868;9.996;2023-04-20T00:47:35;96425.34;;;1.96;84.01
25080;BME280;13071;48.868;9.996;2023-04-20T00:50:02;96418.69;;;1.94;84.08
25080;BME280;13071;48.868;9.996;2023-04-20T00:52:29;96420.06;;;1.91;84.91
25080;BME280;13071;48.868;9.996;2023-04-20T00:54:56;96417.66;;;1.90;85.23
25080;BME280;13071;48.868;9.996;2023-04-20T00:57:25;96416.09;;;1.84;85.65
25080;BME280;13071;48.868;9.996;2023-04-20T00:59:53;96405.91;;;1.91;85.26
25080;BME280;13071;48.868;9.996;2023-04-20T01:02:19;96404.81;;;1.97;85.66
25080;BME280;13071;48.868;9.996;2023-04-20T01:04:46;96405.31;;;1.99;85.77
25080;BME280;13071;48.868;9.996;2023-04-20T01:07:13;96405.84;;;2.01;85.50
25080;BME280;13071;48.868;9.996;2023-04-20T01:09:40;96393.59;;;1.95;85.43
25080;BME280;13071;48.868;9.996;2023-04-20T01:12:08;96398.41;;;1.93;85.58
25080;BME280;13071;48.868;9.996;2023-04-20T01:14:37;96387.50;;;1.89;86.09
25080;BME280;13071;48.868;9.996;2023-04-20T01:17:03;96378.84;;;2.02;85.17
25080;BME280;13071;48.868;9.996;2023-04-20T01:19:30;96368.25;;;1.97;84.58
25080;BME280;13071;48.868;9.996;2023-04-20T01:21:57;96366.81;;;1.76;85.09
25080;BME280;13071;48.868;9.996;2023-04-20T01:24:25;96363.47;;;1.60;85.28
25080;BME280;13071;48.868;9.996;2023-04-20T01:26:52;96360.75;;;1.65;84.43
25080;BME280;13071;48.868;9.996;2023-04-20T01:29:18;96358.72;;;1.57;85.60
25080;BME280;13071;48.868;9.996;2023-04-20T01:31:45;96352.22;;;1.63;85.55
25080;BME280;13071;48.868;9.996;2023-04-20T01:34:12;96349.38;;;1.55;85.86
25080;BME280;13071;48.868;9.996;2023-04-20T01:36:39;96360.63;;;1.52;86.13
25080;BME280;13071;48.868;9.996;2023-04-20T01:39:06;96361.41;;;1.52;86.42
25080;BME280;13071;48.868;9.996;2023-04-20T01:41:34;96352.63;;;1.52;86.67
25080;BME280;13071;48.868;9.996;2023-04-20T01:44:01;96340.88;;;1.53;86.94
25080;BME280;13071;48.868;9.996;2023-04-20T01:46:27;96334.78;;;1.47;87.02
25080;BME280;13071;48.868;9.996;2023-04-20T01:48:54;96328.09;;;1.50;86.99
25080;BME280;13071;48.868;9.996;2023-04-20T01:51:20;96338.47;;;1.51;86.72
25080;BME280;13071;48.868;9.996;2023-04-20T01:53:48;96340.91;;;1.48;86.84
25080;BME280;13071;48.868;9.996;2023-04-20T01:56:14;96341.09;;;1.56;86.97
25080;BME280;13071;48.868;9.996;2023-04-20T01:58:42;96347.53;;;1.16;88.55
25080;BME280;13071;48.868;9.996;2023-04-20T02:01:09;96338.91;;;1.29;87.67
25080;BME280;13071;48.868;9.996;2023-04-20T02:03:35;96346.09;;;1.29;86.65
25080;BME280;13071;48.868;9.996;2023-04-20T02:06:02;96342.97;;;1.22;86.33
25080;BME280;13071;48.868;9.996;2023-04-20T02:08:29;96340.06;;;1.18;86.80
25080;BME280;13071;48.868;9.996;2023-04-20T02:10:56;96334.19;;;1.16;86.74
25080;BME280;13071;48.868;9.996;2023-04-20T02:13:22;96336.56;;;1.23;86.93
25080;BME280;13071;48.868;9.996;2023-04-20T02:15:51;96328.59;;;1.18;87.33
25080;BME280;13071;48.868;9.996;2023-04-20T02:18:17;96335.22;;;1.20;88.18
25080;BME280;13071;48.868;9.996;2023-04-20T02:20:44;96334.47;;;1.15;87.70
25080;BME280;13071;48.868;9.996;2023-04-20T02:23:11;96339.84;;;1.05;87.79
25080;BME280;13071;48.868;9.996;2023-04-20T02:25:38;96329.44;;;1.13;88.20
25080;BME280;13071;48.868;9.996;2023-04-20T02:28:04;96324.84;;;1.19;87.77
25080;BME280;13071;48.868;9.996;2023-04-20T02:30:31;96328.13;;;1.06;87.10
25080;BME280;13071;48.868;9.996;2023-04-20T02:32:59;96330.59;;;0.97;87.12
25080;BME280;13071;48.868;9.996;2023-04-20T02:35:25;96325.59;;;0.85;87.92
25080;BME280;13071;48.868;9.996;2023-04-20T02:37:52;96326.91;;;0.88;88.21
25080;BME280;13071;48.868;9.996;2023-04-20T02:40:19;96322.38;;;0.94;88.74
25080;BME280;13071;48.868;9.996;2023-04-20T02:42:45;96314.66;;;0.87;88.50
25080;BME280;13071;48.868;9.996;2023-04-20T02:45:12;96313.34;;;0.79;88.61
25080;BME280;13071;48.868;9.996;2023-04-20T02:47:39;96310.69;;;0.79;88.92
25080;BME280;13071;48.868;9.996;2023-04-20T02:50:07;96314.25;;;0.65;88.50
25080;BME280;13071;48.868;9.996;2023-04-20T02:52:34;96318.03;;;0.54;88.39
25080;BME280;13071;48.868;9.996;2023-04-20T02:55:01;96307.56;;;0.72;88.50
25080;BME280;13071;48.868;9.996;2023-04-20T02:57:27;96313.72;;;0.63;88.97
25080;BME280;13071;48.868;9.996;2023-04-20T02:59:54;96307.59;;;0.67;88.95
25080;BME280;13071;48.868;9.996;2023-04-20T03:02:21;96307.59;;;0.62;89.42
25080;BME280;13071;48.868;9.996;2023-04-20T03:04:47;96308.16;;;0.59;89.60
25080;BME280;13071;48.868;9.996;2023-04-20T03:07:15;96304.34;;;0.70;89.13
25080;BME280;13071;48.868;9.996;2023-04-20T03:09:42;96302.22;;;0.72;87.91
25080;BME280;13071;48.868;9.996;2023-04-20T03:12:09;96300.97;;;0.55;87.80
25080;BME280;13071;48.868;9.996;2023-04-20T03:14:35;96295.16;;;0.53;88.08
25080;BME280;13071;48.868;9.996;2023-04-20T03:17:02;96305.78;;;0.53;88.71
25080;BME280;13071;48.868;9.996;2023-04-20T03:19:28;96290.91;;;0.47;89.44
25080;BME280;13071;48.868;9.996;2023-04-20T03:21:55;96300.31;;;0.29;89.54
25080;BME280;13071;48.868;9.996;2023-04-20T03:24:23;96294.16;;;0.33;89.95
25080;BME280;13071;48.868;9.996;2023-04-20T03:26:49;96300.50;;;0.42;89.48
25080;BME280;13071;48.868;9.996;2023-04-20T03:29:16;96294.16;;;0.33;90.26
25080;BME280;13071;48.868;9.996;2023-04-20T03:31:42;96294.22;;;0.18;91.04
25080;BME280;13071;48.868;9.996;2023-04-20T03:34:09;96294.97;;;0.34;90.60
25080;BME280;13071;48.868;9.996;2023-04-20T03:36:36;96294.38;;;0.42;90.71
25080;BME280;13071;48.868;9.996;2023-04-20T03:39:03;96290.94;;;0.36;91.84
25080;BME280;13071;48.868;9.996;2023-04-20T03:41:31;96285.63;;;0.36;91.82
25080;BME280;13071;48.868;9.996;2023-04-20T03:43:57;96286.66;;;0.40;91.95
25080;BME280;13071;48.868;9.996;2023-04-20T03:46:24;96286.97;;;0.34;92.09
25080;BME280;13071;48.868;9.996;2023-04-20T03:48:51;96289.56;;;0.49;92.37
25080;BME280;13071;48.868;9.996;2023-04-20T03:51:17;96283.09;;;0.60;91.57
25080;BME280;13071;48.868;9.996;2023-04-20T03:53:44;96287.91;;;0.63;90.95
25080;BME280;13071;48.868;9.996;2023-04-20T03:56:10;96275.47;;;0.49;91.88
25080;BME280;13071;48.868;9.996;2023-04-20T03:58:38;96280.75;;;0.59;92.06
25080;BME280;13071;48.868;9.996;2023-04-20T04:01:06;96276.25;;;0.54;93.17
25080;BME280;13071;48.868;9.996;2023-04-20T04:03:33;96283.16;;;0.50;93.30
25080;BME280;13071;48.868;9.996;2023-04-20T04:06:00;96279.63;;;0.65;92.95
25080;BME280;13071;48.868;9.996;2023-04-20T04:08:26;96275.34;;;0.69;93.03
25080;BME280;13071;48.868;9.996;2023-04-20T04:10:53;96275.09;;;0.65;93.72
25080;BME280;13071;48.868;9.996;2023-04-20T04:13:20;96271.88;;;0.73;93.04
25080;BME280;13071;48.868;9.996;2023-04-20T04:15:48;96267.84;;;0.76;92.14
25080;BME280;13071;48.868;9.996;2023-04-20T04:18:15;96267.78;;;0.42;92.78
25080;BME280;13071;48.868;9.996;2023-04-20T04:20:41;96270.88;;;0.59;92.84
25080;BME280;13071;48.868;9.996;2023-04-20T04:23:08;96268.09;;;0.74;92.62
25080;BME280;13071;48.868;9.996;2023-04-20T04:25:36;96279.28;;;0.76;91.40
25080;BME280;13071;48.868;9.996;2023-04-20T04:28:03;96271.31;;;0.76;91.52
25080;BME280;13071;48.868;9.996;2023-04-20T04:30:30;96268.66;;;0.71;91.69
25080;BME280;13071;48.868;9.996;2023-04-20T04:32:58;96270.78;;;0.74;92.49
25080;BME280;13071;48.868;9.996;2023-04-20T04:35:25;96267.25;;;0.84;92.63
25080;BME280;13071;48.868;9.996;2023-04-20T04:37:51;96264.81;;;0.93;92.72
25080;BME280;13071;48.868;9.996;2023-04-20T04:40:18;96267.91;;;1.05;91.83
25080;BME280;13071;48.868;9.996;2023-04-20T04:42:45;96263.31;;;1.15;91.69
25080;BME280;13071;48.868;9.996;2023-04-20T04:45:13;96260.44;;;1.41;90.83
25080;BME280;13071;48.868;9.996;2023-04-20T04:47:40;96259.81;;;1.78;90.21
25080;BME280;13071;48.868;9.996;2023-04-20T04:50:09;96257.78;;;2.17;89.09
25080;BME280;13071;48.868;9.996;2023-04-20T04:52:37;96257.44;;;2.42;86.65
25080;BME280;13071;48.868;9.996;2023-04-20T04:55:04;96262.25;;;2.83;86.17
25080;BME280;13071;48.868;9.996;2023-04-20T04:57:33;96257.06;;;3.10;83.49
25080;BME280;13071;48.868;9.996;2023-04-20T05:00:00;96262.28;;;3.34;81.47
25080;BME280;13071;48.868;9.996;2023-04-20T05:02:28;96260.00;;;3.73;80.56
25080;BME280;13071;48.868;9.996;2023-04-20T05:04:55;96260.81;;;4.01;77.89
25080;BME280;13071;48.868;9.996;2023-04-20T05:07:23;96258.41;;;3.59;78.13
25080;BME280;13071;48.868;9.996;2023-04-20T05:09:50;96261.25;;;4.22;75.80
25080;BME280;13071;48.868;9.996;2023-04-20T05:12:16;96258.00;;;4.74;72.76
25080;BME280;13071;48.868;9.996;2023-04-20T05:14:43;96256.31;;;5.37;71.87
25080;BME280;13071;48.868;9.996;2023-04-20T05:17:10;96249.06;;;5.37;71.25
25080;BME280;13071;48.868;9.996;2023-04-20T05:19:37;96259.66;;;4.98;72.45
25080;BME280;13071;48.868;9.996;2023-04-20T05:22:03;96253.63;;;4.78;73.82
25080;BME280;13071;48.868;9.996;2023-04-20T05:24:31;96260.19;;;4.72;74.26
25080;BME280;13071;48.868;9.996;2023-04-20T05:26:58;96265.91;;;4.44;75.07
25080;BME280;13071;48.868;9.996;2023-04-20T05:29:24;96268.56;;;4.03;77.09
25080;BME280;13071;48.868;9.996;2023-04-20T05:31:51;96258.78;;;4.75;74.61
25080;BME280;13071;48.868;9.996;2023-04-20T05:34:18;96258.63;;;5.83;71.68
25080;BME280;13071;48.868;9.996;2023-04-20T05:36:45;96257.03;;;6.04;71.46
25080;BME280;13071;48.868;9.996;2023-04-20T05:39:12;96258.09;;;7.16;68.35
25080;BME280;13071;48.868;9.996;2023-04-20T05:41:40;96251.41;;;6.14;70.84
25080;BME280;13071;48.868;9.996;2023-04-20T05:44:06;96254.03;;;6.36;71.10
25080;BME280;13071;48.868;9.996;2023-04-20T05:46:33;96252.88;;;5.89;70.50
25080;BME280;13071;48.868;9.996;2023-04-20T05:48:59;96251.66;;;5.29;73.24
25080;BME280;13071;48.868;9.996;2023-04-20T05:51:26;96257.34;;;4.55;76.49
25080;BME280;13071;48.868;9.996;2023-04-20T05:53:57;96246.97;;;5.34;75.88
25080;BME280;13071;48.868;9.996;2023-04-20T05:56:24;96246.81;;;5.84;73.28
25080;BME280;13071;48.868;9.996;2023-04-20T05:58:52;96246.63;;;5.27;74.69
25080;BME280;13071;48.868;9.996;2023-04-20T06:01:19;96248.50;;;5.27;76.27
25080;BME280;13071;48.868;9.996;2023-04-20T06:03:45;96242.88;;;5.14;76.01
25080;BME280;13071;48.868;9.996;2023-04-20T06:06:13;96248.22;;;3.88;80.24
25080;BME280;13071;48.868;9.996;2023-04-20T06:08:40;96248.75;;;4.04;80.49
25080;BME280;13071;48.868;9.996;2023-04-20T06:11:06;96246.44;;;4.11;79.75
25080;BME280;13071;48.868;9.996;2023-04-20T06:13:33;96253.31;;;3.89;80.38
25080;BME280;13071;48.868;9.996;2023-04-20T06:16:01;96246.13;;;3.85;81.63
25080;BME280;13071;48.868;9.996;2023-04-20T06:18:28;96248.94;;;3.47;83.73
25080;BME280;13071;48.868;9.996;2023-04-20T06:20:54;96255.22;;;3.70;82.69
25080;BME280;13071;48.868;9.996;2023-04-20T06:23:21;96254.06;;;3.90;82.72
25080;BME280;13071;48.868;9.996;2023-04-20T06:25:47;96252.69;;;3.79;84.34
25080;BME280;13071;48.868;9.996;2023-04-20T06:28:14;96244.84;;;3.96;84.10
25080;BME280;13071;48.868;9.996;2023-04-20T06:30:40;96235.94;;;3.87;83.58
25080;BME280;13071;48.868;9.996;2023-04-20T06:33:08;96246.94;;;4.40;82.77
25080;BME280;13071;48.868;9.996;2023-04-20T06:35:38;96237.28;;;4.66;81.96
25080;BME280;13071;48.868;9.996;2023-04-20T06:38:05;96238.72;;;4.37;84.53
25080;BME280;13071;48.868;9.996;2023-04-20T06:40:31;96241.94;;;4.61;83.62
25080;BME280;13071;48.868;9.996;2023-04-20T06:42:58;96243.69;;;4.93;82.41
25080;BME280;13071;48.868;9.996;2023-04-20T06:45:24;96236.00;;;5.00;82.61
25080;BME280;13071;48.868;9.996;2023-04-20T06:47:52;96234.25;;;5.17;82.45
25080;BME280;13071;48.868;9.996;2023-04-20T06:50:21;96242.94;;;5.23;82.79
25080;BME280;13071;48.868;9.996;2023-04-20T06:52:47;96242.06;;;5.28;82.50
25080;BME280;13071;48.868;9.996;2023-04-20T06:55:14;96232.28;;;5.09;83.20
25080;BME280;13071;48.868;9.996;2023-04-20T06:57:40;96231.63;;;4.68;84.88
25080;BME280;13071;48.868;9.996;2023-04-20T07:00:10;96235.75;;;4.74;84.51
25080;BME280;13071;48.868;9.996;2023-04-20T07:02:43;96242.41;;;4.76;84.28
25080;BME280;13071;48.868;9.996;2023-04-20T07:05:10;96238.22;;;4.84;84.10
25080;BME280;13071;48.868;9.996;2023-04-20T07:07:39;96242.34;;;4.68;86.03
25080;BME280;13071;48.868;9.996;2023-04-20T07:10:07;96235.66;;;4.79;85.10
25080;BME280;13071;48.868;9.996;2023-04-20T07:12:33;96249.44;;;4.86;84.63
25080;BME280;13071;48.868;9.996;2023-04-20T07:15:01;96242.59;;;4.80;84.22
25080;BME280;13071;48.868;9.996;2023-04-20T07:17:28;96239.56;;;4.95;85.02
25080;BME280;13071;48.868;9.996;2023-04-20T07:19:55;96231.06;;;4.93;84.89
25080;BME280;13071;48.868;9.996;2023-04-20T07:22:22;96241.53;;;5.03;84.17
25080;BME280;13071;48.868;9.996;2023-04-20T07:24:50;96232.47;;;5.13;83.75
25080;BME280;13071;48.868;9.996;2023-04-20T07:27:17;96227.72;;;5.10;83.44
25080;BME280;13071;48.868;9.996;2023-04-20T07:29:43;96230.66;;;5.22;84.56
25080;BME280;13071;48.868;9.996;2023-04-20T07:32:10;96233.88;;;5.33;83.45
25080;BME280;13071;48.868;9.996;2023-04-20T07:34:36;96228.56;;;5.41;84.08
25080;BME280;13071;48.868;9.996;2023-04-20T07:37:03;96239.22;;;5.55;83.76
25080;BME280;13071;48.868;9.996;2023-04-20T07:39:29;96240.34;;;5.62;82.65
25080;BME280;13071;48.868;9.996;2023-04-20T07:41:57;96241.72;;;5.51;82.32
25080;BME280;13071;48.868;9.996;2023-04-20T07:44:24;96243.19;;;5.57;83.91
25080;BME280;13071;48.868;9.996;2023-04-20T07:46:51;96244.97;;;5.62;83.45
25080;BME280;13071;48.868;9.996;2023-04-20T07:49:19;96253.34;;;5.69;82.63
25080;BME280;13071;48.868;9.996;2023-04-20T07:51:45;96244.97;;;5.62;83.05
25080;BME280;13071;48.868;9.996;2023-04-20T07:54:12;96246.66;;;5.58;84.20
25080;BME280;13071;48.868;9.996;2023-04-20T07:56:38;96245.81;;;5.49;86.91
25080;BME280;13071;48.868;9.996;2023-04-20T07:59:07;96250.09;;;6.03;85.41
25080;BME280;13071;48.868;9.996;2023-04-20T08:01:34;96249.84;;;6.22;83.61
25080;BME280;13071;48.868;9.996;2023-04-20T08:04:01;96245.88;;;6.19;81.27
25080;BME280;13071;48.868;9.996;2023-04-20T08:06:27;96247.25;;;6.08;80.76
25080;BME280;13071;48.868;9.996;2023-04-20T08:08:54;96244.38;;;6.35;82.88
25080;BME280;13071;48.868;9.996;2023-04-20T08:11:21;96244.66;;;6.34;81.80
25080;BME280;13071;48.868;9.996;2023-04-20T08:13:48;96242.81;;;6.51;80.50
25080;BME280;13071;48.868;9.996;2023-04-20T08:16:16;96244.94;;;6.15;84.12
25080;BME280;13071;48.868;9.996;2023-04-20T08:18:43;96244.66;;;6.34;82.50
25080;BME280;13071;48.868;9.996;2023-04-20T08:21:09;96244.94;;;6.24;83.22
25080;BME280;13071;48.868;9.996;2023-04-20T08:23:36;96236.22;;;6.10;82.85
25080;BME280;13071;48.868;9.996;2023-04-20T08:26:04;96241.94;;;5.86;83.25
25080;BME280;13071;48.868;9.996;2023-04-20T08:28:30;96239.69;;;6.10;83.71
25080;BME280;13071;48.868;9.996;2023-04-20T08:30:57;96231.22;;;6.25;84.09
25080;BME280;13071;48.868;9.996;2023-04-20T08:33:25;96231.19;;;6.17;83.21
25080;BME280;13071;48.868;9.996;2023-04-20T08:35:51;96223.06;;;5.99;83.74
25080;BME280;13071;48.868;9.996;2023-04-20T08:38:18;96219.56;;;5.99;85.22
25080;BME280;13071;48.868;9.996;2023-04-20T08:40:45;96221.19;;;6.08;84.99
25080;BME280;13071;48.868;9.996;2023-04-20T08:43:12;96218.81;;;6.07;84.32
25080;BME280;13071;48.868;9.996;2023-04-20T08:45:40;96225.25;;;5.97;85.68
25080;BME280;13071;48.868;9.996;2023-04-20T08:48:10;96219.72;;;6.02;85.05
25080;BME280;13071;48.868;9.996;2023-04-20T08:50:41;96221.53;;;6.16;84.20
25080;BME280;13071;48.868;9.996;2023-04-20T08:53:07;96226.44;;;6.22;84.24
25080;BME280;13071;48.868;9.996;2023-04-20T08:55:34;96228.19;;;6.18;85.35
25080;BME280;13071;48.868;9.996;2023-04-20T08:58:01;96231.59;;;6.01;86.54
25080;BME280;13071;48.868;9.996;2023-04-20T09:00:28;96219.28;;;6.09;84.94
25080;BME280;13071;48.868;9.996;2023-04-20T09:02:55;96234.38;;;5.88;85.59
25080;BME280;13071;48.868;9.996;2023-04-20T09:05:24;96230.22;;;6.13;86.04
25080;BME280;13071;48.868;9.996;2023-04-20T09:07:52;96216.13;;;6.07;84.88
25080;BME280;13071;48.868;9.996;2023-04-20T09:10:20;96217.44;;;6.18;86.34
25080;BME280;13071;48.868;9.996;2023-04-20T09:12:48;96226.78;;;6.29;85.37
25080;BME280;13071;48.868;9.996;2023-04-20T09:15:24;96218.59;;;6.43;84.90
25080;BME280;13071;48.868;9.996;2023-04-20T09:17:50;96216.41;;;6.54;84.10
25080;BME280;13071;48.868;9.996;2023-04-20T09:20:26;96212.78;;;6.58;84.64
25080;BME280;13071;48.868;9.996;2023-04-20T09:22:54;96217.25;;;6.80;84.11
25080;BME280;13071;48.868;9.996;2023-04-20T09:25:22;96228.63;;;6.68;82.59
25080;BME280;13071;48.868;9.996;2023-04-20T09:27:54;96222.78;;;6.75;82.52
25080;BME280;13071;48.868;9.996;2023-04-20T09:30:21;96233.84;;;6.65;82.71
25080;BME280;13071;48.868;9.996;2023-04-20T09:32:48;96214.06;;;6.78;83.28
25080;BME280;13071;48.868;9.996;2023-04-20T09:35:21;96214.38;;;6.68;83.27
25080;BME280;13071;48.868;9.996;2023-04-20T09:37:48;96213.63;;;6.84;83.29
25080;BME280;13071;48.868;9.996;2023-04-20T09:40:17;96204.59;;;6.98;82.59
25080;BME280;13071;48.868;9.996;2023-04-20T09:42:47;96221.38;;;7.03;82.97
25080;BME280;13071;48.868;9.996;2023-04-20T09:45:14;96209.34;;;7.18;83.21
25080;BME280;13071;48.868;9.996;2023-04-20T09:47:42;96206.16;;;7.07;82.55
25080;BME280;13071;48.868;9.996;2023-04-20T09:50:10;96203.00;;;7.22;81.39
25080;BME280;13071;48.868;9.996;2023-04-20T09:52:37;96203.94;;;7.35;80.45
25080;BME280;13071;48.868;9.996;2023-04-20T09:55:04;96199.19;;;7.32;80.53
25080;BME280;13071;48.868;9.996;2023-04-20T09:57:33;96201.41;;;7.21;80.46
25080;BME280;13071;48.868;9.996;2023-04-20T10:00:01;96194.28;;;7.25;80.39
25080;BME280;13071;48.868;9.996;2023-04-20T10:02:29;96189.22;;;7.32;82.02
25080;BME280;13071;48.868;9.996;2023-04-20T10:04:57;96185.22;;;7.47;79.53
25080;BME280;13071;48.868;9.996;2023-04-20T10:07:24;96186.97;;;7.43;79.59
25080;BME280;13071;48.868;9.996;2023-04-20T10:10:02;96177.69;;;7.78;78.74
25080;BME280;13071;48.868;9.996;2023-04-20T10:12:29;96178.81;;;7.77;77.72
25080;BME280;13071;48.868;9.996;2023-04-20T10:14:57;96171.03;;;7.76;78.26
25080;BME280;13071;48.868;9.996;2023-04-20T10:17:28;96181.25;;;8.00;77.15
25080;BME280;13071;48.868;9.996;2023-04-20T10:19:55;96158.44;;;8.27;76.89
25080;BME280;13071;48.868;9.996;2023-04-20T10:22:25;96153.44;;;8.16;75.93
25080;BME280;13071;48.868;9.996;2023-04-20T10:24:54;96152.50;;;8.12;78.07
25080;BME280;13071;48.868;9.996;2023-04-20T10:27:21;96151.34;;;8.22;76.37
25080;BME280;13071;48.868;9.996;2023-04-20T10:29:48;96154.00;;;8.31;77.33
25080;BME280;13071;48.868;9.996;2023-04-20T10:32:22;96153.84;;;7.98;76.46
25080;BME280;13071;48.868;9.996;2023-04-20T10:35:00;96153.81;;;8.06;76.41
25080;BME280;13071;48.868;9.996;2023-04-20T10:37:27;96153.09;;;7.89;75.41
25080;BME280;13071;48.868;9.996;2023-04-20T10:39:54;96159.88;;;7.95;76.58
25080;BME280;13071;48.868;9.996;2023-04-20T10:42:20;96148.13;;;7.99;76.29
25080;BME280;13071;48.868;9.996;2023-04-20T10:44:47;96146.41;;;7.95;76.46
25080;BME280;13071;48.868;9.996;2023-04-20T10:47:14;96146.97;;;8.09;75.87
25080;BME280;13071;48.868;9.996;2023-04-20T10:49:42;96140.44;;;8.18;75.49
25080;BME280;13071;48.868;9.996;2023-04-20T10:52:09;96138.19;;;8.20;77.05
25080;BME280;13071;48.868;9.996;2023-04-20T10:54:36;96140.81;;;8.38;76.25
25080;BME280;13071;48.868;9.996;2023-04-20T10:57:04;96138.44;;;8.36;73.55
25080;BME280;13071;48.868;9.996;2023-04-20T10:59:31;96135.59;;;8.03;74.53
25080;BME280;13071;48.868;9.996;2023-04-20T11:01:59;96138.19;;;7.91;74.58
25080;BME280;13071;48.868;9.996;2023-04-20T11:04:29;96139.09;;;7.95;74.83
25080;BME280;13071;48.868;9.996;2023-04-20T11:07:04;96137.13;;;7.75;75.04
25080;BME280;13071;48.868;9.996;2023-04-20T11:09:33;96127.50;;;7.74;76.00
25080;BME280;13071;48.868;9.996;2023-04-20T11:12:03;96128.16;;;7.62;76.66
25080;BME280;13071;48.868;9.996;2023-04-20T11:14:31;96120.13;;;7.54;76.28
25080;BME280;13071;48.868;9.996;2023-04-20T11:16:58;96116.13;;;7.60;77.47
25080;BME280;13071;48.868;9.996;2023-04-20T11:19:26;96127.25;;;7.50;77.74
25080;BME280;13071;48.868;9.996;2023-04-20T11:21:53;96118.84;;;7.51;77.43
25080;BME280;13071;48.868;9.996;2023-04-20T11:24:22;96106.06;;;7.40;77.85
25080;BME280;13071;48.868;9.996;2023-04-20T11:26:50;96109.75;;;7.35;77.91
25080;BME280;13071;48.868;9.996;2023-04-20T11:29:31;96110.25;;;7.20;78.93
25080;BME280;13071;48.868;9.996;2023-04-20T11:32:00;96118.75;;;7.30;78.03
25080;BME280;13071;48.868;9.996;2023-04-20T11:34:28;96115.56;;;7.37;77.70
25080;BME280;13071;48.868;9.996;2023-04-20T11:36:55;96107.34;;;7.33;78.63
25080;BME280;13071;48.868;9.996;2023-04-20T11:39:23;96097.69;;;7.32;78.12
25080;BME280;13071;48.868;9.996;2023-04-20T11:41:51;96098.66;;;7.28;78.86
25080;BME280;13071;48.868;9.996;2023-04-20T11:44:19;96096.59;;;7.33;77.72
25080;BME280;13071;48.868;9.996;2023-04-20T11:46:46;96102.41;;;7.44;79.08
25080;BME280;13071;48.868;9.996;2023-04-20T11:49:14;96102.88;;;7.46;77.49
25080;BME280;13071;48.868;9.996;2023-04-20T11:51:41;96117.50;;;7.28;78.18
25080;BME280;13071;48.868;9.996;2023-04-20T11:54:08;96112.59;;;7.21;79.16
25080;BME280;13071;48.868;9.996;2023-04-20T11:56:36;96114.31;;;7.26;79.69
25080;BME280;13071;48.868;9.996;2023-04-20T11:59:03;96113.69;;;7.29;78.81
25080;BME280;13071;48.868;9.996;2023-04-20T12:01:30;96117.34;;;7.24;77.47
25080;BME280;13071;48.868;9.996;2023-04-20T12:03:57;96114.66;;;7.16;78.35
25080;BME280;13071;48.868;9.996;2023-04-20T12:06:25;96105.50;;;7.08;78.07
25080;BME280;13071;48.868;9.996;2023-04-20T12:08:53;96115.34;;;7.04;79.86
25080;BME280;13071;48.868;9.996;2023-04-20T12:11:19;96117.88;;;7.09;79.31
25080;BME280;13071;48.868;9.996;2023-04-20T12:13:47;96114.41;;;7.00;79.69
25080;BME280;13071;48.868;9.996;2023-04-20T12:16:14;96120.41;;;6.97;80.64
25080;BME280;13071;48.868;9.996;2023-04-20T12:18:40;96122.94;;;6.93;80.35
25080;BME280;13071;48.868;9.996;2023-04-20T12:21:07;96120.53;;;7.01;79.11
25080;BME280;13071;48.868;9.996;2023-04-20T12:23:34;96124.81;;;7.02;79.14
25080;BME280;13071;48.868;9.996;2023-04-20T12:26:01;96128.44;;;7.06;78.82
25080;BME280;13071;48.868;9.996;2023-04-20T12:28:28;96117.41;;;6.99;79.79
25080;BME280;13071;48.868;9.996;2023-04-20T12:30:56;96113.28;;;6.92;79.33
25080;BME280;13071;48.868;9.996;2023-04-20T12:33:23;96121.19;;;6.98;78.95
25080;BME280;13071;48.868;9.996;2023-04-20T12:35:49;96117.72;;;6.97;79.88
25080;BME280;13071;48.868;9.996;2023-04-20T12:38:16;96116.28;;;7.08;80.45
25080;BME280;13071;48.868;9.996;2023-04-20T12:40:43;96114.69;;;7.07;80.02
25080;BME280;13071;48.868;9.996;2023-04-20T12:43:09;96120.09;;;6.90;79.71
25080;BME280;13071;48.868;9.996;2023-04-20T12:45:36;96117.56;;;6.93;80.16
25080;BME280;13071;48.868;9.996;2023-04-20T12:48:04;96121.00;;;7.11;80.29
25080;BME280;13071;48.868;9.996;2023-04-20T12:50:31;96120.03;;;7.16;81.05
25080;BME280;13071;48.868;9.996;2023-04-20T12:52:57;96111.19;;;7.24;79.23
25080;BME280;13071;48.868;9.996;2023-04-20T12:55:24;96118.75;;;7.30;79.14
25080;BME280;13071;48.868;9.996;2023-04-20T12:57:51;96117.34;;;7.24;78.59
25080;BME280;13071;48.868;9.996;2023-04-20T13:00:18;96113.56;;;7.17;79.23
25080;BME280;13071;48.868;9.996;2023-04-20T13:02:45;96110.56;;;7.18;79.63
25080;BME280;13071;48.868;9.996;2023-04-20T13:05:13;96110.91;;;7.08;80.39
25080;BME280;13071;48.868;9.996;2023-04-20T13:07:40;96116.22;;;7.34;79.65
25080;BME280;13071;48.868;9.996;2023-04-20T13:10:07;96111.75;;;7.47;79.31